Time,TemperatureF,DewpointF,PressureIn,WindDirection,WindDirectionDegrees,WindSpeedMPH,WindSpeedGustMPH,Humidity,HourlyPrecipIn,Conditions,Clouds,dailyrainin,SoftwareType,DateUTC
2013-09-01 08:44:00,54.0,54.0,25.83,ESE,107,2.0,6.0,100,0.00,,,0.00,,2013-09-01 15:44:00,
2013-09-01 08:55:00,54.0,54.0,25.83,ESE,107,2.0,6.0,100,0.00,,,0.00,,2013-09-01 15:55:00,
2013-09-01 09:14:00,56.0,56.0,25.83,ESE,114,1.0,6.0,100,0.00,,,0.00,,2013-09-01 16:14:00,
2013-09-01 09:24:00,56.0,56.0,25.83,ESE,115,2.0,8.0,100,0.00,,,0.00,,2013-09-01 16:24:00,
2013-09-01 09:53:00,58.0,58.0,25.83,ESE,105,2.0,6.0,100,0.00,,,0.00,,2013-09-01 16:53:00,
2013-09-01 10:12:00,62.0,60.0,25.83,ESE,118,3.0,7.0,93,0.00,,,0.00,,2013-09-01 17:12:00,
2013-09-01 10:23:00,62.0,60.0,25.83,ESE,118,3.0,7.0,93,0.00,,,0.00,,2013-09-01 17:23:00,
2013-09-01 10:52:00,67.0,60.0,25.83,East,99,3.0,7.0,78,0.00,,,0.00,,2013-09-01 17:52:00,
2013-09-01 11:12:00,68.0,60.0,25.83,SE,127,2.0,6.0,75,0.00,,,0.00,,2013-09-01 18:12:00,
2013-09-01 11:22:00,68.0,60.0,25.83,SE,127,2.0,6.0,75,0.00,,,0.00,,2013-09-01 18:22:00,
2013-09-01 11:42:00,71.0,61.0,25.83,NE,53,2.0,4.0,71,0.00,,,0.00,,2013-09-01 18:42:00,
2013-09-01 11:52:00,71.0,61.0,25.83,NE,53,2.0,4.0,71,0.00,,,0.00,,2013-09-01 18:52:00,
2013-09-01 12:12:00,74.0,60.0,25.83,SE,125,5.0,13.0,62,0.00,,,0.00,,2013-09-01 19:12:00,
2013-09-01 12:22:00,74.0,60.0,25.83,SE,125,5.0,13.0,62,0.00,,,0.00,,2013-09-01 19:22:00,
2013-09-01 12:52:00,73.0,61.0,25.83,SW,218,5.0,11.0,65,0.00,,,0.00,,2013-09-01 19:52:00,
2013-09-01 13:12:00,70.0,59.0,25.83,SW,226,7.0,15.0,68,0.00,,,0.00,,2013-09-01 20:12:00,
2013-09-01 13:21:00,69.0,58.0,25.83,SSW,192,8.0,19.0,68,0.00,,,0.00,,2013-09-01 20:21:00,
2013-09-01 13:42:00,68.0,57.0,25.83,South,169,10.0,22.0,69,0.00,,,0.00,,2013-09-01 20:42:00,
2013-09-01 13:52:00,67.0,58.0,25.83,SSW,197,6.0,23.0,72,0.00,,,0.00,,2013-09-01 20:52:00,
2013-09-01 14:11:00,67.0,57.0,25.83,SSW,198,6.0,21.0,71,0.00,,,0.00,,2013-09-01 21:11:00,
2013-09-01 14:21:00,67.0,57.0,25.83,SSW,198,6.0,21.0,71,0.00,,,0.00,,2013-09-01 21:21:00,
2013-09-01 14:44:00,70.0,57.0,25.83,South,182,6.0,15.0,64,0.00,,,0.00,,2013-09-01 21:44:00,
2013-09-01 14:55:00,70.0,57.0,25.83,South,182,6.0,15.0,64,0.00,,,0.00,,2013-09-01 21:55:00,
2013-09-01 15:14:00,68.0,57.0,25.83,South,190,6.0,20.0,68,0.00,,,0.00,,2013-09-01 22:14:00,
2013-09-01 15:24:00,68.0,57.0,25.83,South,190,6.0,20.0,68,0.00,,,0.00,,2013-09-01 22:24:00,
2013-09-01 15:53:00,69.0,57.0,25.83,SSW,209,8.0,20.0,66,0.00,,,0.00,,2013-09-01 22:53:00,
2013-09-01 16:23:00,69.0,58.0,25.83,SSW,203,10.0,27.0,68,0.00,,,0.00,,2013-09-01 23:23:00,
2013-09-01 16:53:00,70.0,59.0,25.83,SSE,159,8.0,17.0,67,0.00,,,0.00,,2013-09-01 23:53:00,
2013-09-01 17:11:00,70.0,60.0,25.83,SSE,164,7.0,15.0,70,0.00,,,0.00,,2013-09-02 00:11:00,
2013-09-01 17:22:00,68.0,61.0,25.83,South,187,7.0,20.0,79,0.00,,,0.00,,2013-09-02 00:22:00,
2013-09-01 17:42:00,68.0,62.0,25.83,South,184,7.0,16.0,81,0.00,,,0.00,,2013-09-02 00:42:00,
2013-09-01 17:52:00,68.0,62.0,25.83,South,184,7.0,16.0,81,0.00,,,0.00,,2013-09-02 00:52:00,
2013-09-01 18:12:00,67.0,62.0,25.83,South,191,9.0,20.0,84,0.00,,,0.00,,2013-09-02 01:12:00,
2013-09-01 18:21:00,67.0,62.0,25.83,SSE,160,7.0,23.0,85,0.00,,,0.00,,2013-09-02 01:21:00,
2013-09-01 18:41:00,67.0,63.0,25.83,South,173,8.0,25.0,87,0.00,,,0.00,,2013-09-02 01:41:00,
2013-09-01 18:52:00,66.0,63.0,25.83,SSE,161,6.0,19.0,89,0.00,,,0.00,,2013-09-02 01:52:00,
2013-09-01 19:21:00,65.0,62.0,25.83,SSE,155,7.0,21.0,91,0.00,,,0.00,,2013-09-02 02:21:00,
2013-09-01 19:42:00,65.0,63.0,25.83,South,169,7.0,20.0,92,0.00,,,0.00,,2013-09-02 02:42:00,
2013-09-01 19:52:00,65.0,63.0,25.83,South,169,7.0,20.0,92,0.00,,,0.00,,2013-09-02 02:52:00,